KDGW/DGW METAR and TAF weather

Enter ICAO airport designator
Station Type Date Time Source
KDGW METAR 2021/07/24 20:53 UTC NOAA

KDGW 242053Z AUTO 18007G18KT 10SM BKN110 33/03 A3020 RMK AO2 SLP160 T03330033 56016 $


Station Type Date Time Source
KDGW Decoded METAR 2021/07/24 20:53 UTC NOAA

DOUGLAS CONVERSE COUNTY, WY, United States (KDGW) 42-48N 105-23W 1499M
Jul 24, 2021 - 04:53 PM EDT / 2021.07.24 2053 UTC
Wind: from the S (180 degrees) at 8 MPH (7 KT) gusting to 21 MPH (18 KT):0
Visibility: 10 mile(s):0
Sky conditions: mostly cloudy
Temperature: 91.9 F (33.3 C)
Dew Point: 37.9 F (3.3 C)
Relative Humidity: 15%
Pressure (altimeter): 30.2 in. Hg (1022 hPa)
Pressure tendency: 0.05 inches (1.6 hPa) lower than three hours ago
ob: KDGW 242053Z AUTO 18007G18KT 10SM BKN110 33/03 A3020 RMK AO2 SLP160 T03330033 56016
cycle: 21

Station Type Date Time Source
KDGW TAF UTC NOAA

Error!

Example: see airport list